Time;durP1;ratioP1;P1;durP2;ratioP2;P2;SDS_P1;SDS_P2;PMS_P1;PMS_P2;Temp;Humidity;BMP_temperature;BMP_pressure;BME280_temperature;BME280_humidity;BME280_pressure;Samples;Min_cycle;Max_cycle;Signal;HPM_P1;HPM_P2
2023/08/15 00:06:29;;;;;;;11.8;8.3;;;;;;;19.74;85.3;;;;;
2023/08/15 00:17:28;;;;;;;11.8;8.3;;;;;;;19.52;86.5;;;;;
2023/08/15 00:27:29;;;;;;;14.2;9.9;;;;;;;19.41;85.31;;;;;
2023/08/15 00:37:29;;;;;;;14.2;9.9;;;;;;;19.25;85.49;;;;;
2023/08/15 00:48:30;;;;;;;10.9;9.4;;;;;;;19.17;85.3;;;;;
2023/08/15 00:58:29;;;;;;;10.9;9.4;;;;;;;19.11;85.55;;;;;
2023/08/15 01:08:29;;;;;;;10.9;9.4;;;;;;;19.01;85.68;;;;;
2023/08/15 01:18:29;;;;;;;10.5;7.9;;;;;;;18.89;85.65;;;;;
2023/08/15 01:28:29;;;;;;;10.5;7.9;;;;;;;18.73;85.1;;;;;
2023/08/15 01:39:29;;;;;;;10.5;7.9;;;;;;;18.49;85.58;;;;;
2023/08/15 01:50:29;;;;;;;11.6;8.6;;;;;;;18.4;85.81;;;;;
2023/08/15 02:00:29;;;;;;;11.6;8.6;;;;;;;18.3;87.34;;;;;
2023/08/15 02:10:29;;;;;;;11.6;8.6;;;;;;;18.3;87.4;;;;;
2023/08/15 02:20:29;;;;;;;12;9;;;;;;;18.18;86.94;;;;;
2023/08/15 02:31:29;;;;;;;12;9;;;;;;;18.2;87.07;;;;;
2023/08/15 02:42:29;;;;;;;12;9;;;;;;;18.1;86.81;;;;;
2023/08/15 02:52:29;;;;;;;10.7;7.3;;;;;;;18.01;86.88;;;;;
2023/08/15 03:02:29;;;;;;;10.7;7.3;;;;;;;17.9;87.34;;;;;
2023/08/15 03:13:29;;;;;;;10.7;7.3;;;;;;;17.87;87.32;;;;;
2023/08/15 03:23:29;;;;;;;11.4;6.9;;;;;;;17.84;86.68;;;;;
2023/08/15 03:33:29;;;;;;;11.4;6.9;;;;;;;17.7;87.25;;;;;
2023/08/15 03:44:29;;;;;;;11.4;6.9;;;;;;;17.69;86.7;;;;;
2023/08/15 03:54:29;;;;;;;10.2;6.8;;;;;;;17.69;86.52;;;;;
2023/08/15 04:05:29;;;;;;;10.2;6.8;;;;;;;17.69;86.82;;;;;
2023/08/15 04:16:29;;;;;;;10.2;6.8;;;;;;;17.84;87.1;;;;;
2023/08/15 04:27:29;;;;;;;11.2;7.5;;;;;;;17.94;88.54;;;;;
2023/08/15 04:37:29;;;;;;;11.2;7.5;;;;;;;18.27;87.96;;;;;
2023/08/15 04:47:29;;;;;;;11.2;7.5;;;;;;;18.56;88;;;;;
2023/08/15 04:58:29;;;;;;;12.4;8.8;;;;;;;19.05;85.64;;;;;
2023/08/15 05:08:29;;;;;;;12.4;8.8;;;;;;;19.35;84.95;;;;;
2023/08/15 05:18:29;;;;;;;12.5;9.6;;;;;;;19.7;84.36;;;;;
2023/08/15 05:29:29;;;;;;;12.5;9.6;;;;;;;20.19;83.12;;;;;
2023/08/15 05:40:29;;;;;;;12.5;9.6;;;;;;;20.7;82.38;;;;;
2023/08/15 05:50:29;;;;;;;14.6;9.8;;;;;;;21.14;81.85;;;;;
2023/08/15 06:01:29;;;;;;;14.6;9.8;;;;;;;21.64;81.04;;;;;
2023/08/15 06:11:29;;;;;;;14.6;9.8;;;;;;;22.26;80.35;;;;;
2023/08/15 06:22:29;;;;;;;13.2;9.3;;;;;;;22.85;78;;;;;
2023/08/15 06:32:29;;;;;;;13.2;9.3;;;;;;;23.3;77.1;;;;;
2023/08/15 06:43:29;;;;;;;13.2;9.3;;;;;;;23.6;76.18;;;;;
2023/08/15 06:54:29;;;;;;;13;7.8;;;;;;;24.26;74.57;;;;;
2023/08/15 07:04:29;;;;;;;13;7.8;;;;;;;24.73;74.6;;;;;
2023/08/15 07:14:29;;;;;;;13;7.8;;;;;;;25.18;72.01;;;;;
2023/08/15 07:25:29;;;;;;;12.2;8.1;;;;;;;25.71;70.44;;;;;
2023/08/15 07:35:29;;;;;;;12.2;8.1;;;;;;;25.96;69.25;;;;;
2023/08/15 07:46:29;;;;;;;12.2;8.1;;;;;;;26.46;67.8;;;;;
2023/08/15 07:57:29;;;;;;;9.8;6.7;;;;;;;26.95;67.26;;;;;
2023/08/15 08:07:30;;;;;;;9.8;6.7;;;;;;;26.86;61.92;;;;;
2023/08/15 08:18:29;;;;;;;9.8;6.7;;;;;;;27.41;56.88;;;;;
2023/08/15 08:28:29;;;;;;;8;5.6;;;;;;;27.36;50.89;;;;;
2023/08/15 08:38:29;;;;;;;8;5.6;;;;;;;27.76;53.76;;;;;
2023/08/15 08:48:29;;;;;;;8;5.6;;;;;;;28.03;51.28;;;;;
2023/08/15 08:58:29;;;;;;;7.3;4.4;;;;;;;27.96;54.04;;;;;
2023/08/15 09:09:29;;;;;;;7.3;4.4;;;;;;;28.56;50.76;;;;;
2023/08/15 09:19:29;;;;;;;7.2;4.7;;;;;;;28.82;50.73;;;;;
2023/08/15 09:29:29;;;;;;;7.2;4.7;;;;;;;29.06;49.82;;;;;
2023/08/15 09:40:30;;;;;;;7.2;4.7;;;;;;;29.15;48.9;;;;;
2023/08/15 09:51:29;;;;;;;6.9;3.5;;;;;;;29.08;48.76;;;;;
2023/08/15 10:01:29;;;;;;;6.9;3.5;;;;;;;29.41;48.93;;;;;
2023/08/15 10:12:29;;;;;;;6.9;3.5;;;;;;;29.52;47.65;;;;;
2023/08/15 10:22:30;;;;;;;6.4;3.7;;;;;;;29.82;48.45;;;;;
2023/08/15 10:32:29;;;;;;;6.4;3.7;;;;;;;30.18;48.48;;;;;
2023/08/15 10:42:29;;;;;;;6.4;3.7;;;;;;;29.91;49.11;;;;;
2023/08/15 10:53:29;;;;;;;7.7;4.6;;;;;;;30.24;47.27;;;;;
2023/08/15 11:03:29;;;;;;;7.7;4.6;;;;;;;30.55;49.42;;;;;
2023/08/15 11:14:29;;;;;;;7.7;4.6;;;;;;;30.85;46.51;;;;;
2023/08/15 11:24:29;;;;;;;7.8;4.2;;;;;;;30.67;44.65;;;;;
2023/08/15 11:35:29;;;;;;;7.8;4.2;;;;;;;30.66;45.3;;;;;
2023/08/15 11:46:29;;;;;;;7.8;4.2;;;;;;;31.16;43.76;;;;;
2023/08/15 11:56:29;;;;;;;6.2;3.1;;;;;;;31.14;37.64;;;;;
2023/08/15 12:06:29;;;;;;;6.2;3.1;;;;;;;31.21;37.78;;;;;
2023/08/15 12:17:30;;;;;;;6.2;3.1;;;;;;;31.24;39.1;;;;;
2023/08/15 12:28:29;;;;;;;6.7;2.9;;;;;;;31.31;37.62;;;;;
2023/08/15 12:38:29;;;;;;;6.7;2.9;;;;;;;31.4;38.65;;;;;
2023/08/15 12:49:29;;;;;;;6.6;2.9;;;;;;;31.59;38.74;;;;;
2023/08/15 12:59:29;;;;;;;6.6;2.9;;;;;;;31.91;40.84;;;;;
2023/08/15 13:09:30;;;;;;;6.6;2.9;;;;;;;32.18;40.84;;;;;
2023/08/15 13:20:29;;;;;;;4.4;2.5;;;;;;;32.07;38.38;;;;;
2023/08/15 13:31:29;;;;;;;4.4;2.5;;;;;;;32.05;41.63;;;;;
2023/08/15 13:42:30;;;;;;;4.4;2.5;;;;;;;31.98;40.94;;;;;
2023/08/15 13:53:29;;;;;;;7.3;4;;;;;;;32.18;41.07;;;;;
2023/08/15 14:03:29;;;;;;;7.3;4;;;;;;;32.61;40.78;;;;;
2023/08/15 14:14:29;;;;;;;7.3;4;;;;;;;32.43;40.33;;;;;
2023/08/15 14:24:33;;;;;;;7;3.4;;;;;;;32.68;40.89;;;;;
2023/08/15 14:35:29;;;;;;;7;3.4;;;;;;;33.18;40.83;;;;;
2023/08/15 14:45:30;;;;;;;7;3.4;;;;;;;33.12;40;;;;;
2023/08/15 14:56:29;;;;;;;8;3.9;;;;;;;33.51;41.3;;;;;
2023/08/15 15:07:31;;;;;;;8;3.9;;;;;;;33.51;41.59;;;;;
2023/08/15 15:17:29;;;;;;;8;3.9;;;;;;;33.9;40.29;;;;;
2023/08/15 15:27:29;;;;;;;5.5;3.1;;;;;;;36.14;37.09;;;;;
2023/08/15 15:37:29;;;;;;;5.5;3.1;;;;;;;36.7;34.71;;;;;
2023/08/15 15:48:30;;;;;;;5.5;3.1;;;;;;;38.89;32.24;;;;;
2023/08/15 15:58:30;;;;;;;7.6;3.1;;;;;;;39.25;32.02;;;;;
2023/08/15 16:09:29;;;;;;;7.6;3.1;;;;;;;38.47;32.77;;;;;
2023/08/15 16:20:29;;;;;;;6.1;3.3;;;;;;;36.73;33.68;;;;;
2023/08/15 16:31:30;;;;;;;6.1;3.3;;;;;;;34.46;38.45;;;;;
2023/08/15 16:42:29;;;;;;;6.1;3.3;;;;;;;32.97;41.43;;;;;
2023/08/15 16:52:30;;;;;;;6.1;3.4;;;;;;;32.13;43;;;;;
2023/08/15 17:03:29;;;;;;;6.1;3.4;;;;;;;31.23;44.71;;;;;
2023/08/15 17:13:29;;;;;;;6.1;3.4;;;;;;;30.47;46.83;;;;;
2023/08/15 17:24:29;;;;;;;5.5;3.3;;;;;;;29.98;48.27;;;;;
2023/08/15 17:35:30;;;;;;;5.5;3.3;;;;;;;29.18;51.65;;;;;
2023/08/15 17:46:30;;;;;;;5.5;3.3;;;;;;;28.69;53.74;;;;;
2023/08/15 17:56:30;;;;;;;7.4;4.3;;;;;;;28;56.87;;;;;
2023/08/15 18:06:30;;;;;;;7.4;4.3;;;;;;;27.38;58.41;;;;;
2023/08/15 18:16:30;;;;;;;7.4;4.3;;;;;;;26.87;60.23;;;;;
2023/08/15 18:27:30;;;;;;;8.1;4.7;;;;;;;26.3;61.98;;;;;
2023/08/15 18:37:30;;;;;;;8.1;4.7;;;;;;;25.92;62.78;;;;;
2023/08/15 18:47:30;;;;;;;8.1;4.7;;;;;;;25.66;63.87;;;;;
2023/08/15 18:57:30;;;;;;;11.8;8.8;;;;;;;25.34;64.55;;;;;
2023/08/15 19:07:30;;;;;;;11.8;8.8;;;;;;;24.96;64.6;;;;;
2023/08/15 19:18:30;;;;;;;11.8;8.8;;;;;;;24.53;67.87;;;;;
2023/08/15 19:29:30;;;;;;;9.8;6.5;;;;;;;24.16;68.72;;;;;
2023/08/15 19:40:30;;;;;;;9.8;6.5;;;;;;;23.83;70.5;;;;;
2023/08/15 19:50:30;;;;;;;9.8;6.5;;;;;;;23.58;70.87;;;;;
2023/08/15 20:01:30;;;;;;;10;7;;;;;;;23.15;71.5;;;;;
2023/08/15 20:11:30;;;;;;;10;7;;;;;;;22.92;72.25;;;;;
2023/08/15 20:22:30;;;;;;;9.1;7.1;;;;;;;22.73;74.07;;;;;
2023/08/15 20:33:30;;;;;;;9.1;7.1;;;;;;;22.55;74.99;;;;;
2023/08/15 20:43:30;;;;;;;9.1;7.1;;;;;;;22.4;74.9;;;;;
2023/08/15 20:53:30;;;;;;;7.9;5.9;;;;;;;22.07;77.49;;;;;
2023/08/15 21:03:30;;;;;;;7.9;5.9;;;;;;;22.01;77.32;;;;;
2023/08/15 21:14:30;;;;;;;7.9;5.9;;;;;;;21.83;79.5;;;;;
2023/08/15 21:24:30;;;;;;;9.2;6.6;;;;;;;21.66;79.98;;;;;
2023/08/15 21:35:30;;;;;;;9.2;6.6;;;;;;;21.64;79.34;;;;;
2023/08/15 21:46:30;;;;;;;9.2;6.6;;;;;;;21.39;80.98;;;;;
2023/08/15 21:57:30;;;;;;;10.8;7.3;;;;;;;21.41;80.19;;;;;
2023/08/15 22:07:30;;;;;;;10.8;7.3;;;;;;;21.38;79.74;;;;;
2023/08/15 22:18:30;;;;;;;10.8;7.3;;;;;;;21.44;80.67;;;;;
2023/08/15 22:29:30;;;;;;;10.5;7.2;;;;;;;21.63;80.58;;;;;
2023/08/15 22:40:30;;;;;;;10.5;7.2;;;;;;;21.68;80.33;;;;;
2023/08/15 22:51:30;;;;;;;9.8;7.2;;;;;;;21.71;79.46;;;;;
2023/08/15 23:02:30;;;;;;;9.8;7.2;;;;;;;21.8;80;;;;;
2023/08/15 23:12:30;;;;;;;9.8;7.2;;;;;;;21.74;80.75;;;;;
2023/08/15 23:22:30;;;;;;;9.4;7;;;;;;;21.65;80.26;;;;;
2023/08/15 23:32:30;;;;;;;9.4;7;;;;;;;21.6;80.61;;;;;
2023/08/15 23:43:30;;;;;;;9.4;7;;;;;;;21.5;80.96;;;;;
2023/08/15 23:53:30;;;;;;;10.8;7.4;;;;;;;21.31;81.88;;;;;
